createdAt,value
2024-04-17T00:00:23.805Z,13.62
2024-04-17T00:01:20.642Z,13.70
2024-04-17T00:02:17.419Z,13.66
2024-04-17T00:03:14.567Z,13.54
2024-04-17T00:04:11.469Z,13.58
2024-04-17T00:05:10.861Z,13.41
2024-04-17T00:06:08.679Z,13.46
2024-04-17T00:07:05.433Z,13.46
2024-04-17T00:08:02.262Z,13.82
2024-04-17T00:08:59.083Z,13.62
2024-04-17T00:09:55.935Z,13.68
2024-04-17T00:10:52.862Z,13.72
2024-04-17T00:11:49.795Z,14.01
2024-04-17T00:12:46.542Z,13.91
2024-04-17T00:13:43.373Z,13.67
2024-04-17T00:14:40.161Z,13.74
2024-04-17T00:15:36.980Z,13.75
2024-04-17T00:16:33.792Z,13.83
2024-04-17T00:17:30.851Z,13.80
2024-04-17T00:18:27.753Z,13.75
2024-04-17T00:19:24.509Z,13.81
2024-04-17T00:20:21.405Z,13.83
2024-04-17T00:21:18.166Z,13.96
2024-04-17T00:22:14.975Z,13.83
2024-04-17T00:23:11.708Z,13.73
2024-04-17T00:24:08.478Z,13.83
2024-04-17T00:25:05.400Z,13.68
2024-04-17T00:26:02.291Z,13.82
2024-04-17T00:26:59.100Z,13.80
2024-04-17T00:27:55.842Z,13.81
2024-04-17T00:28:52.629Z,13.95
2024-04-17T00:29:49.568Z,13.85
2024-04-17T00:30:47.278Z,13.58
2024-04-17T00:31:44.036Z,13.76
2024-04-17T00:32:40.850Z,13.88
2024-04-17T00:33:38.146Z,13.77
2024-04-17T00:34:35.112Z,13.64
2024-04-17T00:35:31.938Z,13.60
2024-04-17T00:36:28.709Z,13.68
2024-04-17T00:37:25.511Z,13.79
2024-04-17T00:38:22.352Z,13.93
2024-04-17T00:39:20.676Z,13.89
2024-04-17T00:40:17.469Z,13.82
2024-04-17T00:41:14.166Z,13.85
2024-04-17T00:42:10.925Z,13.91
2024-04-17T00:43:07.746Z,13.96
2024-04-17T00:44:04.598Z,14.25
2024-04-17T00:45:01.431Z,14.34
2024-04-17T00:45:58.208Z,14.32
2024-04-17T00:46:55.405Z,14.29
2024-04-17T00:47:52.549Z,14.37
2024-04-17T00:48:49.642Z,14.38
2024-04-17T00:49:46.998Z,14.32
2024-04-17T00:50:47.380Z,14.14
2024-04-17T00:51:44.365Z,14.17
2024-04-17T00:52:41.309Z,14.29
2024-04-17T00:53:39.171Z,14.37
2024-04-17T00:54:37.306Z,14.57
2024-04-17T00:55:38.396Z,14.53
2024-04-17T00:56:35.709Z,14.38
2024-04-17T00:57:33.278Z,14.22
2024-04-17T00:58:30.643Z,14.31
2024-04-17T00:59:27.459Z,14.50
2024-04-17T01:00:24.360Z,14.53
2024-04-17T01:01:21.147Z,14.40
2024-04-17T01:02:18.037Z,14.40
2024-04-17T01:03:15.232Z,14.27
2024-04-17T01:04:12.184Z,14.37
2024-04-17T01:05:08.974Z,14.32
2024-04-17T01:06:05.957Z,14.31
2024-04-17T01:07:02.782Z,14.23
2024-04-17T01:08:01.060Z,14.46
2024-04-17T01:08:57.881Z,14.46
2024-04-17T01:09:55.805Z,14.47
2024-04-17T01:11:02.940Z,14.45
2024-04-17T01:11:59.869Z,14.60
2024-04-17T01:12:56.605Z,14.44
2024-04-17T01:13:53.375Z,14.36
2024-04-17T01:14:50.285Z,14.52
2024-04-17T01:15:47.066Z,14.68
2024-04-17T01:16:44.291Z,14.50
2024-04-17T01:17:41.091Z,14.41
2024-04-17T01:18:44.501Z,14.30
2024-04-17T01:19:42.307Z,14.17
2024-04-17T01:20:39.155Z,14.20
2024-04-17T01:21:36.075Z,14.01
2024-04-17T01:22:32.866Z,13.98
2024-04-17T01:23:29.634Z,14.01
2024-04-17T01:24:26.390Z,14.09
2024-04-17T01:25:24.616Z,14.11
2024-04-17T01:26:21.380Z,14.14
2024-04-17T01:27:18.169Z,14.14
2024-04-17T01:28:14.919Z,13.74
2024-04-17T01:29:11.631Z,13.90
2024-04-17T01:30:09.640Z,14.15
2024-04-17T01:31:06.499Z,14.29
2024-04-17T01:32:03.415Z,14.29
2024-04-17T01:33:00.739Z,14.00
2024-04-17T01:33:57.712Z,14.32
2024-04-17T01:34:54.487Z,14.16
2024-04-17T01:35:51.271Z,13.81
2024-04-17T01:36:48.059Z,13.87
2024-04-17T01:37:44.777Z,13.79
2024-04-17T01:38:41.783Z,13.93
2024-04-17T01:39:38.563Z,14.02
2024-04-17T01:40:35.434Z,14.21
2024-04-17T01:41:32.233Z,14.14
2024-04-17T01:42:28.957Z,14.04
2024-04-17T01:43:26.887Z,13.96
2024-04-17T01:44:29.864Z,13.81
2024-04-17T01:45:27.349Z,13.84
2024-04-17T01:46:24.106Z,13.94
2024-04-17T01:47:20.909Z,14.06
2024-04-17T01:48:17.719Z,13.98
2024-04-17T01:49:14.435Z,13.94
2024-04-17T01:50:11.234Z,13.90
2024-04-17T01:51:07.937Z,13.83
2024-04-17T01:52:05.038Z,13.89
2024-04-17T01:53:01.768Z,13.81
2024-04-17T01:53:58.589Z,13.76
2024-04-17T01:54:55.382Z,13.68
2024-04-17T01:55:52.378Z,13.67
2024-04-17T01:56:52.741Z,13.77
2024-04-17T01:57:49.484Z,14.04
2024-04-17T01:58:46.250Z,14.07
2024-04-17T01:59:43.015Z,13.75
2024-04-17T02:00:40.232Z,13.50
2024-04-17T02:01:37.283Z,13.50
2024-04-17T02:02:34.017Z,13.54
2024-04-17T02:03:30.876Z,13.49
2024-04-17T02:04:27.884Z,13.64
2024-04-17T02:05:24.628Z,13.77
2024-04-17T02:06:21.372Z,13.87
2024-04-17T02:07:18.114Z,13.89
2024-04-17T02:08:14.993Z,13.98
2024-04-17T02:09:11.691Z,13.97
2024-04-17T02:10:08.530Z,13.79
2024-04-17T02:11:06.652Z,13.76
2024-04-17T02:12:03.796Z,13.93
2024-04-17T02:13:00.539Z,13.98
2024-04-17T02:13:57.356Z,13.90
2024-04-17T02:14:54.109Z,13.95
2024-04-17T02:15:50.824Z,14.00
2024-04-17T02:16:47.646Z,14.07
2024-04-17T02:17:44.562Z,13.83
2024-04-17T02:18:41.418Z,13.82
2024-04-17T02:19:38.190Z,13.81
2024-04-17T02:20:34.951Z,13.92
2024-04-17T02:21:31.807Z,14.19
2024-04-17T02:22:28.578Z,13.95
2024-04-17T02:23:29.660Z,13.80
2024-04-17T02:24:26.463Z,13.81
2024-04-17T02:25:23.385Z,13.66
2024-04-17T02:26:20.246Z,13.43
2024-04-17T02:27:17.061Z,13.62
2024-04-17T02:28:13.844Z,13.80
2024-04-17T02:29:10.624Z,13.90
2024-04-17T02:30:07.981Z,14.26
2024-04-17T02:31:04.892Z,14.22
2024-04-17T02:32:01.691Z,14.11
2024-04-17T02:32:58.626Z,13.81
2024-04-17T02:33:55.719Z,13.64
2024-04-17T02:34:52.558Z,13.58
2024-04-17T02:35:49.342Z,13.61
2024-04-17T02:36:46.125Z,13.68
2024-04-17T02:37:42.916Z,13.71
2024-04-17T02:38:39.649Z,13.87
2024-04-17T02:39:36.789Z,13.82
2024-04-17T02:40:33.532Z,13.67
2024-04-17T02:41:30.334Z,13.83
2024-04-17T02:42:27.073Z,13.83
2024-04-17T02:43:23.898Z,14.00
2024-04-17T02:44:20.630Z,14.20
2024-04-17T02:45:17.368Z,14.49
2024-04-17T02:46:14.209Z,14.42
2024-04-17T02:47:11.063Z,14.40
2024-04-17T02:48:08.287Z,14.30
2024-04-17T02:49:05.053Z,14.16
2024-04-17T02:50:01.878Z,13.99
2024-04-17T02:50:58.721Z,13.92
2024-04-17T02:51:55.449Z,13.81
2024-04-17T02:52:52.221Z,13.65
2024-04-17T02:53:49.106Z,13.41
2024-04-17T02:54:45.829Z,13.34
2024-04-17T02:55:42.602Z,13.33
2024-04-17T02:56:39.861Z,13.40
2024-04-17T02:57:36.614Z,13.33
2024-04-17T02:58:33.415Z,13.33
2024-04-17T02:59:30.264Z,13.29
2024-04-17T03:00:27.653Z,13.28
2024-04-17T03:01:25.252Z,13.37
2024-04-17T03:02:22.148Z,13.41
2024-04-17T03:03:19.073Z,13.44
2024-04-17T03:04:15.886Z,13.48
2024-04-17T03:05:12.773Z,13.51
2024-04-17T03:06:09.831Z,13.55
2024-04-17T03:07:06.591Z,13.33
2024-04-17T03:08:06.339Z,13.36
2024-04-17T03:09:03.098Z,13.34
2024-04-17T03:09:59.834Z,13.31
2024-04-17T03:11:00.507Z,13.31
2024-04-17T03:11:57.278Z,13.45
2024-04-17T03:12:54.002Z,13.39
2024-04-17T03:13:50.865Z,13.63
2024-04-17T03:14:47.628Z,13.82
2024-04-17T03:15:47.176Z,13.83
2024-04-17T03:16:44.138Z,13.73
2024-04-17T03:17:40.977Z,13.74
2024-04-17T03:18:37.869Z,13.74
2024-04-17T03:19:34.784Z,13.65
2024-04-17T03:20:32.898Z,13.55
2024-04-17T03:21:30.601Z,13.45
2024-04-17T03:22:27.488Z,13.49
2024-04-17T03:23:24.211Z,13.61
2024-04-17T03:24:20.939Z,13.83
2024-04-17T03:25:17.704Z,13.94
2024-04-17T03:26:14.457Z,13.98
2024-04-17T03:27:11.183Z,13.78
2024-04-17T03:28:07.925Z,13.75
2024-04-17T03:29:04.676Z,13.74
2024-04-17T03:30:02.500Z,13.75
2024-04-17T03:31:01.367Z,13.69
2024-04-17T03:32:04.246Z,14.04
2024-04-17T03:33:01.096Z,14.00
2024-04-17T03:33:57.926Z,14.29
2024-04-17T03:34:54.756Z,14.51
2024-04-17T03:35:58.946Z,14.41
2024-04-17T03:36:55.711Z,14.36
2024-04-17T03:37:52.474Z,14.32
2024-04-17T03:38:49.248Z,14.30
2024-04-17T03:39:46.036Z,14.38
2024-04-17T03:40:42.818Z,14.47
2024-04-17T03:41:39.652Z,14.37
2024-04-17T03:42:36.413Z,14.26
2024-04-17T03:43:33.184Z,14.20
2024-04-17T03:44:29.942Z,14.09
2024-04-17T03:45:26.785Z,14.41
2024-04-17T03:46:23.537Z,14.59
2024-04-17T03:47:20.304Z,14.37
2024-04-17T03:48:17.116Z,14.48
2024-04-17T03:49:13.902Z,14.40
2024-04-17T03:50:10.664Z,14.41
2024-04-17T03:51:07.413Z,14.39
2024-04-17T03:52:04.437Z,14.32
2024-04-17T03:53:01.266Z,14.46
2024-04-17T03:53:58.209Z,14.32
2024-04-17T03:54:54.979Z,14.18
2024-04-17T03:55:51.726Z,13.94
2024-04-17T03:56:48.480Z,13.92
2024-04-17T03:57:45.199Z,13.85
2024-04-17T03:58:41.915Z,13.96
2024-04-17T03:59:38.669Z,13.76
2024-04-17T04:00:35.601Z,13.68
2024-04-17T04:01:36.345Z,13.57
2024-04-17T04:02:33.203Z,13.52
2024-04-17T04:03:30.035Z,13.65
2024-04-17T04:04:26.934Z,13.66
2024-04-17T04:05:23.767Z,13.68
2024-04-17T04:06:20.545Z,13.99
2024-04-17T04:07:17.531Z,14.16
2024-04-17T04:08:14.237Z,14.06
2024-04-17T04:09:11.003Z,13.74
2024-04-17T04:10:07.877Z,13.54
2024-04-17T04:11:04.929Z,13.47
2024-04-17T04:12:01.804Z,13.46
2024-04-17T04:12:59.418Z,13.38
2024-04-17T04:13:56.197Z,13.52
2024-04-17T04:14:52.953Z,13.73
2024-04-17T04:15:55.759Z,13.89
2024-04-17T04:16:52.652Z,13.65
2024-04-17T04:17:49.829Z,13.46
2024-04-17T04:18:46.662Z,13.45
2024-04-17T04:19:44.370Z,13.45
2024-04-17T04:20:41.114Z,13.37
2024-04-17T04:21:37.964Z,13.52
2024-04-17T04:22:34.756Z,13.51
2024-04-17T04:23:31.576Z,13.33
2024-04-17T04:24:28.328Z,13.11
2024-04-17T04:25:25.076Z,12.99
2024-04-17T04:26:21.902Z,13.39
2024-04-17T04:27:18.608Z,13.18
2024-04-17T04:28:15.645Z,13.22
2024-04-17T04:29:12.428Z,13.04
2024-04-17T04:30:09.502Z,13.20
2024-04-17T04:31:06.255Z,13.09
2024-04-17T04:32:03.163Z,12.97
2024-04-17T04:33:00.732Z,13.01
2024-04-17T04:33:57.582Z,12.99
2024-04-17T04:34:54.390Z,12.87
2024-04-17T04:35:51.234Z,12.78
2024-04-17T04:36:48.084Z,12.79
2024-04-17T04:37:44.934Z,12.81
2024-04-17T04:38:41.942Z,12.73
2024-04-17T04:39:38.707Z,12.91
2024-04-17T04:40:35.496Z,13.14
2024-04-17T04:41:32.307Z,13.05
2024-04-17T04:42:29.073Z,13.04
2024-04-17T04:43:25.890Z,12.85
2024-04-17T04:44:22.690Z,12.75
2024-04-17T04:45:19.426Z,12.81
2024-04-17T04:46:16.274Z,12.75
2024-04-17T04:47:14.755Z,12.70
2024-04-17T04:48:11.983Z,12.73
2024-04-17T04:49:08.794Z,12.36
2024-04-17T04:50:05.756Z,12.70
2024-04-17T04:51:02.669Z,12.70
2024-04-17T04:51:59.497Z,12.69
2024-04-17T04:52:56.232Z,12.66
2024-04-17T04:53:52.945Z,12.76
2024-04-17T04:54:49.724Z,12.81
2024-04-17T04:55:59.952Z,12.73
2024-04-17T04:56:56.703Z,12.61
2024-04-17T04:57:53.487Z,12.87
2024-04-17T04:58:50.229Z,12.83
2024-04-17T04:59:47.357Z,12.83
2024-04-17T05:00:44.095Z,12.91
2024-04-17T05:01:40.886Z,12.95
2024-04-17T05:02:37.756Z,12.91
2024-04-17T05:03:34.517Z,12.73
2024-04-17T05:04:31.451Z,12.59
2024-04-17T05:05:28.219Z,12.94
2024-04-17T05:06:25.002Z,13.08
2024-04-17T05:07:21.964Z,12.95
2024-04-17T05:08:19.964Z,12.84
2024-04-17T05:09:16.744Z,12.64
2024-04-17T05:10:13.486Z,12.69
2024-04-17T05:11:13.203Z,12.69
2024-04-17T05:12:10.012Z,12.83
2024-04-17T05:13:06.934Z,13.05
2024-04-17T05:14:03.768Z,13.19
2024-04-17T05:15:00.554Z,13.10
2024-04-17T05:15:57.283Z,12.86
2024-04-17T05:16:54.160Z,12.61
2024-04-17T05:17:51.024Z,12.58
2024-04-17T05:18:47.891Z,12.72
2024-04-17T05:19:44.700Z,12.85
2024-04-17T05:20:41.474Z,12.93
2024-04-17T05:21:38.209Z,12.89
2024-04-17T05:22:35.294Z,13.07
2024-04-17T05:23:32.048Z,13.12
2024-04-17T05:24:29.761Z,13.11
2024-04-17T05:25:27.922Z,13.23
2024-04-17T05:26:24.883Z,13.18
2024-04-17T05:27:21.629Z,13.34
2024-04-17T05:28:18.364Z,13.29
2024-04-17T05:29:15.122Z,13.01
2024-04-17T05:30:12.384Z,12.85
2024-04-17T05:31:09.192Z,13.17
2024-04-17T05:32:06.303Z,13.22
2024-04-17T05:33:03.477Z,12.88
2024-04-17T05:34:00.264Z,13.28
2024-04-17T05:34:57.163Z,13.11
2024-04-17T05:35:53.947Z,12.86
2024-04-17T05:36:50.650Z,12.95
2024-04-17T05:37:47.353Z,13.09
2024-04-17T05:38:44.155Z,13.34
2024-04-17T05:39:41.028Z,13.50
2024-04-17T05:40:38.145Z,13.47
2024-04-17T05:41:34.889Z,13.26
2024-04-17T05:42:31.718Z,13.14
2024-04-17T05:43:28.488Z,13.26
2024-04-17T05:44:25.279Z,13.38
2024-04-17T05:45:22.187Z,13.00
2024-04-17T05:46:18.928Z,12.97
2024-04-17T05:47:15.744Z,12.94
2024-04-17T05:48:12.744Z,13.05
2024-04-17T05:49:09.581Z,13.20
2024-04-17T05:50:09.060Z,13.00
2024-04-17T05:51:06.274Z,13.01
2024-04-17T05:52:04.676Z,13.02
2024-04-17T05:53:01.458Z,12.95
2024-04-17T05:53:58.211Z,12.92
2024-04-17T05:54:55.054Z,12.93
2024-04-17T05:55:51.888Z,12.98
2024-04-17T05:56:48.766Z,12.87
2024-04-17T05:57:45.571Z,12.90
2024-04-17T05:58:42.392Z,12.94
2024-04-17T05:59:39.290Z,12.97
2024-04-17T06:00:37.636Z,12.85
2024-04-17T06:01:34.485Z,12.99
2024-04-17T06:02:31.255Z,13.18
2024-04-17T06:03:27.981Z,13.29
2024-04-17T06:04:25.357Z,13.18
2024-04-17T06:05:22.134Z,13.07
2024-04-17T06:06:18.920Z,13.01
2024-04-17T06:07:15.697Z,12.99
2024-04-17T06:08:12.551Z,12.93
2024-04-17T06:09:09.407Z,12.87
2024-04-17T06:10:06.906Z,12.88
2024-04-17T06:11:06.557Z,12.94
2024-04-17T06:12:06.579Z,12.78
2024-04-17T06:13:03.302Z,12.85
2024-04-17T06:14:00.376Z,12.86
2024-04-17T06:14:57.213Z,12.91
2024-04-17T06:15:54.349Z,12.94
2024-04-17T06:16:51.126Z,12.90
2024-04-17T06:17:47.998Z,12.91
2024-04-17T06:18:44.996Z,12.84
2024-04-17T06:19:41.782Z,12.84
2024-04-17T06:20:38.538Z,12.85
2024-04-17T06:21:35.266Z,12.86
2024-04-17T06:22:32.066Z,12.86
2024-04-17T06:23:28.943Z,12.89
2024-04-17T06:24:25.674Z,12.91
2024-04-17T06:25:22.419Z,12.87
2024-04-17T06:26:19.262Z,13.00
2024-04-17T06:27:16.164Z,13.11
2024-04-17T06:28:12.942Z,13.09
2024-04-17T06:29:09.753Z,13.23
2024-04-17T06:30:07.127Z,13.16
2024-04-17T06:31:06.894Z,13.24
2024-04-17T06:32:03.861Z,13.39
2024-04-17T06:33:00.838Z,13.42
2024-04-17T06:33:57.732Z,13.35
2024-04-17T06:34:54.567Z,13.31
2024-04-17T06:35:54.264Z,13.19
2024-04-17T06:36:52.350Z,13.02
2024-04-17T06:37:49.161Z,13.16
2024-04-17T06:38:46.278Z,13.15
2024-04-17T06:39:43.089Z,12.94
2024-04-17T06:40:39.880Z,12.90
2024-04-17T06:41:43.441Z,13.03
2024-04-17T06:42:48.687Z,13.14
2024-04-17T06:43:45.479Z,13.35
2024-04-17T06:44:42.271Z,13.50
2024-04-17T06:45:39.034Z,13.45
2024-04-17T06:46:35.845Z,13.22
2024-04-17T06:47:32.617Z,13.11
2024-04-17T06:48:29.469Z,13.09
2024-04-17T06:49:26.873Z,13.27
2024-04-17T06:50:23.800Z,13.45
2024-04-17T06:51:20.522Z,13.17
2024-04-17T06:52:17.382Z,13.08
2024-04-17T06:53:14.106Z,13.03
2024-04-17T06:54:10.815Z,13.01
2024-04-17T06:55:07.663Z,13.02
2024-04-17T06:56:04.641Z,13.08
2024-04-17T06:57:01.474Z,13.14
2024-04-17T06:57:58.195Z,13.14
2024-04-17T06:58:55.304Z,13.44
2024-04-17T06:59:52.085Z,13.50
2024-04-17T07:00:48.921Z,13.36
2024-04-17T07:01:45.934Z,13.45
2024-04-17T07:02:49.135Z,13.36
2024-04-17T07:03:49.331Z,13.62
2024-04-17T07:04:46.246Z,13.61
2024-04-17T07:05:43.026Z,13.64
2024-04-17T07:06:41.865Z,13.60
2024-04-17T07:07:38.708Z,13.67
2024-04-17T07:08:35.579Z,13.59
2024-04-17T07:09:32.321Z,13.57
2024-04-17T07:10:29.136Z,13.43
2024-04-17T07:11:25.914Z,13.58
2024-04-17T07:12:22.665Z,13.73
2024-04-17T07:13:19.505Z,13.75
2024-04-17T07:14:16.292Z,13.38
2024-04-17T07:15:13.043Z,13.20
2024-04-17T07:16:10.533Z,13.37
2024-04-17T07:17:07.329Z,13.64
2024-04-17T07:18:04.250Z,13.76
2024-04-17T07:19:01.265Z,13.85
2024-04-17T07:19:58.163Z,13.66
2024-04-17T07:20:55.152Z,13.60
2024-04-17T07:21:52.610Z,13.60
2024-04-17T07:22:49.454Z,13.98
2024-04-17T07:23:46.162Z,13.79
2024-04-17T07:24:43.044Z,13.89
2024-04-17T07:25:39.815Z,14.16
2024-04-17T07:26:36.646Z,14.18
2024-04-17T07:27:33.436Z,14.11
2024-04-17T07:28:30.193Z,14.19
2024-04-17T07:29:27.062Z,14.18
2024-04-17T07:30:23.843Z,14.29
2024-04-17T07:31:20.636Z,14.33
2024-04-17T07:32:17.464Z,14.32
2024-04-17T07:33:14.466Z,14.45
2024-04-17T07:34:11.352Z,14.22
2024-04-17T07:35:08.152Z,14.27
2024-04-17T07:36:05.201Z,14.52
2024-04-17T07:37:01.945Z,14.51
2024-04-17T07:37:58.971Z,14.50
2024-04-17T07:38:55.728Z,14.31
2024-04-17T07:39:52.502Z,14.31
2024-04-17T07:40:57.418Z,14.18
2024-04-17T07:41:54.286Z,14.20
2024-04-17T07:42:51.069Z,14.32
2024-04-17T07:43:47.850Z,14.20
2024-04-17T07:44:48.323Z,14.17
2024-04-17T07:45:52.146Z,14.23
2024-04-17T07:46:49.493Z,14.10
2024-04-17T07:47:46.382Z,14.22
2024-04-17T07:48:43.226Z,14.26
2024-04-17T07:49:40.070Z,14.14
2024-04-17T07:50:36.829Z,14.19
2024-04-17T07:51:33.621Z,14.28
2024-04-17T07:52:30.526Z,14.16
2024-04-17T07:53:27.279Z,14.01
2024-04-17T07:54:24.147Z,14.09
2024-04-17T07:55:20.890Z,14.07
2024-04-17T07:56:17.611Z,13.98
2024-04-17T07:57:14.371Z,13.99
2024-04-17T07:58:11.130Z,13.95
2024-04-17T07:59:08.457Z,14.09
2024-04-17T08:00:05.648Z,13.87
2024-04-17T08:01:02.527Z,13.86
2024-04-17T08:01:59.319Z,13.80
2024-04-17T08:02:56.144Z,13.65
2024-04-17T08:03:54.553Z,13.49
2024-04-17T08:04:51.793Z,13.76
2024-04-17T08:05:48.684Z,13.73
2024-04-17T08:06:45.434Z,13.86
2024-04-17T08:07:43.371Z,13.81
2024-04-17T08:08:42.236Z,13.90
2024-04-17T08:09:38.980Z,13.85
2024-04-17T08:10:36.319Z,13.82
2024-04-17T08:11:38.321Z,13.78
2024-04-17T08:12:37.683Z,13.87
2024-04-17T08:13:34.462Z,13.86
2024-04-17T08:14:31.265Z,14.07
2024-04-17T08:15:28.032Z,13.96
2024-04-17T08:16:24.827Z,13.95
2024-04-17T08:17:21.684Z,14.03
2024-04-17T08:18:18.597Z,14.09
2024-04-17T08:19:16.025Z,13.98
2024-04-17T08:20:12.864Z,13.94
2024-04-17T08:21:09.704Z,14.05
2024-04-17T08:22:06.513Z,14.34
2024-04-17T08:23:03.653Z,14.16
2024-04-17T08:24:00.461Z,14.28
2024-04-17T08:24:57.195Z,14.37
2024-04-17T08:25:54.059Z,14.39
2024-04-17T08:26:50.841Z,14.43
2024-04-17T08:27:47.556Z,14.50
2024-04-17T08:28:44.314Z,14.58
2024-04-17T08:29:41.118Z,14.35
2024-04-17T08:30:37.803Z,14.64
2024-04-17T08:31:34.665Z,14.33
2024-04-17T08:32:31.809Z,14.41
2024-04-17T08:33:29.115Z,14.40
2024-04-17T08:34:26.092Z,14.43
2024-04-17T08:35:22.985Z,14.70
2024-04-17T08:36:19.800Z,14.67
2024-04-17T08:37:16.632Z,14.38
2024-04-17T08:38:13.593Z,14.43
2024-04-17T08:39:10.472Z,14.25
2024-04-17T08:40:08.976Z,14.15
2024-04-17T08:41:05.826Z,14.01
2024-04-17T08:42:07.203Z,14.10
2024-04-17T08:43:08.110Z,13.96
2024-04-17T08:44:13.865Z,13.84
2024-04-17T08:45:15.444Z,13.70
2024-04-17T08:46:17.511Z,14.13
2024-04-17T08:47:16.197Z,13.96
2024-04-17T08:48:13.237Z,13.90
2024-04-17T08:49:12.564Z,14.03
2024-04-17T08:50:10.872Z,14.40
2024-04-17T08:51:12.143Z,14.41
2024-04-17T08:52:10.695Z,14.53
2024-04-17T08:53:08.092Z,14.62
2024-04-17T08:54:06.314Z,14.42
2024-04-17T08:55:07.165Z,14.30
2024-04-17T08:56:04.552Z,14.43
2024-04-17T08:57:01.405Z,14.56
2024-04-17T08:57:58.770Z,14.69
2024-04-17T08:58:55.996Z,14.81
2024-04-17T08:59:52.752Z,14.96
2024-04-17T09:00:52.938Z,15.04
2024-04-17T09:01:50.937Z,14.98
2024-04-17T09:02:49.280Z,14.93
2024-04-17T09:03:47.364Z,14.86
2024-04-17T09:04:48.391Z,14.90
2024-04-17T09:05:46.134Z,15.04
2024-04-17T09:06:43.838Z,14.89
2024-04-17T09:07:41.804Z,14.51
2024-04-17T09:08:39.280Z,14.80
2024-04-17T09:09:38.723Z,15.08
2024-04-17T09:10:35.608Z,15.08
2024-04-17T09:11:33.628Z,14.96
2024-04-17T09:12:32.500Z,14.81
2024-04-17T09:13:29.331Z,14.97
2024-04-17T09:15:23.525Z,15.22
2024-04-17T09:16:20.279Z,15.13
2024-04-17T09:17:17.059Z,15.00
2024-04-17T09:18:14.489Z,14.65
2024-04-17T09:19:11.377Z,14.72
2024-04-17T09:20:08.713Z,14.50
2024-04-17T09:21:06.478Z,14.51
2024-04-17T09:22:03.363Z,14.45
2024-04-17T09:23:00.301Z,14.71
2024-04-17T09:23:57.117Z,15.11
2024-04-17T09:24:53.840Z,15.36
2024-04-17T09:25:50.584Z,15.49
2024-04-17T09:26:47.385Z,15.47
2024-04-17T09:27:46.572Z,15.61
2024-04-17T09:28:43.616Z,15.66
2024-04-17T09:29:40.492Z,15.60
2024-04-17T09:30:38.008Z,15.33
2024-04-17T09:31:34.834Z,15.64
2024-04-17T09:32:31.947Z,15.73
2024-04-17T09:33:29.276Z,15.94
2024-04-17T09:34:26.167Z,15.71
2024-04-17T09:35:24.005Z,15.93
2024-04-17T09:36:22.560Z,15.97
2024-04-17T09:37:19.533Z,15.92
2024-04-17T09:38:16.913Z,15.90
2024-04-17T09:39:13.751Z,16.06
2024-04-17T09:40:11.932Z,16.14
2024-04-17T09:41:12.757Z,15.96
2024-04-17T09:42:13.641Z,15.83
2024-04-17T09:43:19.565Z,16.07
2024-04-17T09:44:22.150Z,16.12
2024-04-17T09:45:23.558Z,16.10
2024-04-17T09:46:22.974Z,16.26
2024-04-17T09:47:20.791Z,16.43
2024-04-17T09:48:17.584Z,16.53
2024-04-17T09:49:23.979Z,16.10
2024-04-17T09:50:26.519Z,15.71
2024-04-17T09:51:26.948Z,15.97
2024-04-17T09:52:23.915Z,16.20
2024-04-17T09:53:31.516Z,15.98
2024-04-17T09:54:33.968Z,15.72
2024-04-17T09:55:32.439Z,15.68
2024-04-17T09:56:29.741Z,15.74
2024-04-17T09:57:26.954Z,15.66
2024-04-17T09:58:24.581Z,15.67
2024-04-17T09:59:22.888Z,15.75
2024-04-17T10:00:20.063Z,16.00
2024-04-17T10:01:18.185Z,16.18
2024-04-17T10:02:17.328Z,16.10
2024-04-17T10:03:16.744Z,15.92
2024-04-17T10:04:16.789Z,15.67
2024-04-17T10:05:15.444Z,15.59
2024-04-17T10:06:12.590Z,15.54
2024-04-17T10:07:12.694Z,15.77
2024-04-17T10:08:09.840Z,16.13
2024-04-17T10:09:07.641Z,16.02
2024-04-17T10:10:05.659Z,15.84
2024-04-17T10:11:02.923Z,16.00
2024-04-17T10:12:01.603Z,15.79
2024-04-17T10:13:01.193Z,16.08
2024-04-17T10:13:59.447Z,16.08
2024-04-17T10:14:58.336Z,15.66
2024-04-17T10:15:55.935Z,15.97
2024-04-17T10:16:53.999Z,16.14
2024-04-17T10:17:51.169Z,16.04
2024-04-17T10:18:48.208Z,16.11
2024-04-17T10:19:54.516Z,16.21
2024-04-17T10:20:55.028Z,16.37
2024-04-17T10:21:55.747Z,16.51
2024-04-17T10:22:52.549Z,16.56
2024-04-17T10:24:02.180Z,16.51
2024-04-17T10:25:06.651Z,16.37
2024-04-17T10:26:03.476Z,16.04
2024-04-17T10:27:05.680Z,16.27
2024-04-17T10:28:04.384Z,16.29
2024-04-17T10:29:01.206Z,16.42
2024-04-17T10:30:14.430Z,16.52
2024-04-17T10:31:11.039Z,16.68
2024-04-17T10:32:15.541Z,16.85
2024-04-17T10:33:24.957Z,16.87
2024-04-17T10:34:21.808Z,16.60
2024-04-17T10:35:19.433Z,16.57
2024-04-17T10:36:16.328Z,16.47
2024-04-17T10:37:13.987Z,16.32
2024-04-17T10:38:23.378Z,16.29
2024-04-17T10:39:28.417Z,16.52
2024-04-17T10:40:26.156Z,16.53
2024-04-17T10:41:29.643Z,16.87
2024-04-17T10:42:26.902Z,17.13
2024-04-17T10:43:24.901Z,17.01
2024-04-17T10:44:24.613Z,16.76
2024-04-17T10:45:21.871Z,16.92
2024-04-17T10:46:23.094Z,16.66
2024-04-17T10:47:30.808Z,16.64
2024-04-17T10:48:27.755Z,16.83
2024-04-17T10:49:24.528Z,16.83
2024-04-17T10:50:21.338Z,16.78
2024-04-17T10:51:20.089Z,16.53
2024-04-17T10:52:17.156Z,16.57
2024-04-17T10:53:14.969Z,16.46
2024-04-17T10:54:13.159Z,16.55
2024-04-17T10:55:11.669Z,16.37
2024-04-17T10:56:11.818Z,16.40
2024-04-17T10:57:10.172Z,16.44
2024-04-17T10:58:08.211Z,16.39
2024-04-17T10:59:05.564Z,16.46
2024-04-17T11:00:02.581Z,16.58
2024-04-17T11:01:05.059Z,16.87
2024-04-17T11:02:01.989Z,16.92
2024-04-17T11:02:59.763Z,16.70
2024-04-17T11:03:56.551Z,16.11
2024-04-17T11:04:53.521Z,16.13
2024-04-17T11:05:50.380Z,16.35
2024-04-17T11:06:47.341Z,16.25
2024-04-17T11:07:44.137Z,16.31
2024-04-17T11:08:48.156Z,15.77
2024-04-17T11:09:51.935Z,15.66
2024-04-17T11:10:49.766Z,15.23
2024-04-17T11:11:51.509Z,15.18
2024-04-17T11:12:48.412Z,15.31
2024-04-17T11:13:45.429Z,15.47
2024-04-17T11:14:42.724Z,15.67
2024-04-17T11:15:39.408Z,15.26
2024-04-17T11:16:37.634Z,15.91
2024-04-17T11:17:34.606Z,15.32
2024-04-17T11:18:33.224Z,14.71
2024-04-17T11:19:30.116Z,15.37
2024-04-17T11:20:27.055Z,15.49
2024-04-17T11:21:25.245Z,15.83
2024-04-17T11:22:22.147Z,15.66
2024-04-17T11:23:18.974Z,15.46
2024-04-17T11:24:19.604Z,15.43
2024-04-17T11:25:16.563Z,16.02
2024-04-17T11:26:14.332Z,15.86
2024-04-17T11:27:11.371Z,16.10
2024-04-17T11:28:13.414Z,16.07
2024-04-17T11:29:29.931Z,15.78
2024-04-17T11:30:33.790Z,15.43
2024-04-17T11:31:30.624Z,15.67
2024-04-17T11:32:29.310Z,16.12
2024-04-17T11:33:29.469Z,16.22
2024-04-17T11:34:26.645Z,16.42
2024-04-17T11:35:23.404Z,16.16
2024-04-17T11:36:20.167Z,15.89
2024-04-17T11:37:17.180Z,15.80
2024-04-17T11:38:14.889Z,16.10
2024-04-17T11:39:11.807Z,16.40
2024-04-17T11:40:09.525Z,16.35
2024-04-17T11:41:06.458Z,16.41
2024-04-17T11:42:04.232Z,16.47
2024-04-17T11:43:00.956Z,16.50
2024-04-17T11:43:57.719Z,16.28
2024-04-17T11:44:56.913Z,16.11
2024-04-17T11:45:54.569Z,16.24
2024-04-17T11:46:51.894Z,16.34
2024-04-17T11:47:48.790Z,16.74
2024-04-17T11:48:45.898Z,16.22
2024-04-17T11:49:43.864Z,16.67
2024-04-17T11:50:40.935Z,17.02
2024-04-17T11:51:37.921Z,17.08
2024-04-17T11:52:34.731Z,17.04
2024-04-17T11:53:31.598Z,17.20
2024-04-17T11:54:28.686Z,17.31
2024-04-17T11:55:25.599Z,17.23
2024-04-17T11:56:22.463Z,16.67
2024-04-17T11:57:19.539Z,16.69
2024-04-17T11:58:16.317Z,17.01
2024-04-17T11:59:13.089Z,17.07
2024-04-17T12:00:10.425Z,17.22
2024-04-17T12:01:08.201Z,17.09
2024-04-17T12:02:05.273Z,17.27
2024-04-17T12:03:02.135Z,16.77
2024-04-17T12:03:59.099Z,16.53
2024-04-17T12:04:55.991Z,16.37
2024-04-17T12:05:53.989Z,16.07
2024-04-17T12:06:53.381Z,15.67
2024-04-17T12:07:50.230Z,15.77
2024-04-17T12:08:47.434Z,15.19
2024-04-17T12:09:50.515Z,16.14
2024-04-17T12:10:49.384Z,15.94
2024-04-17T12:11:46.354Z,16.18
2024-04-17T12:12:43.062Z,15.60
2024-04-17T12:13:39.937Z,15.95
2024-04-17T12:14:36.762Z,16.25
2024-04-17T12:15:33.560Z,15.91
2024-04-17T12:16:30.546Z,15.57
2024-04-17T12:17:27.447Z,15.73
2024-04-17T12:18:24.229Z,15.75
2024-04-17T12:19:20.974Z,15.66
2024-04-17T12:20:17.840Z,15.76
2024-04-17T12:21:14.616Z,15.54
2024-04-17T12:22:11.379Z,15.38
2024-04-17T12:23:08.228Z,15.52